sensor_id;sensor_type;location;lat;lon;timestamp;P1;durP1;ratioP1;P2;durP2;ratioP2
31990;SDS011;18508;49.386;8.370;2022-08-04T00:01:42;6.82;;;4.35;;
31990;SDS011;18508;49.386;8.370;2022-08-04T00:04:17;6.82;;;4.10;;
31990;SDS011;18508;49.386;8.370;2022-08-04T00:06:59;7.90;;;4.03;;
31990;SDS011;18508;49.386;8.370;2022-08-04T00:09:36;8.63;;;4.55;;
31990;SDS011;18508;49.386;8.370;2022-08-04T00:12:07;7.15;;;3.80;;
31990;SDS011;18508;49.386;8.370;2022-08-04T00:14:40;7.97;;;4.35;;
31990;SDS011;18508;49.386;8.370;2022-08-04T00:17:15;7.20;;;4.13;;
31990;SDS011;18508;49.386;8.370;2022-08-04T00:19:46;11.00;;;4.23;;
31990;SDS011;18508;49.386;8.370;2022-08-04T00:22:17;4.55;;;3.83;;
31990;SDS011;18508;49.386;8.370;2022-08-04T00:24:48;12.82;;;4.20;;
31990;SDS011;18508;49.386;8.370;2022-08-04T00:27:16;8.93;;;4.35;;
31990;SDS011;18508;49.386;8.370;2022-08-04T00:29:44;6.05;;;3.80;;
31990;SDS011;18508;49.386;8.370;2022-08-04T00:32:18;6.97;;;4.05;;
31990;SDS011;18508;49.386;8.370;2022-08-04T00:35:00;7.25;;;4.13;;
31990;SDS011;18508;49.386;8.370;2022-08-04T00:37:30;7.50;;;3.85;;
31990;SDS011;18508;49.386;8.370;2022-08-04T00:40:00;7.43;;;4.03;;
31990;SDS011;18508;49.386;8.370;2022-08-04T00:42:33;8.38;;;4.57;;
31990;SDS011;18508;49.386;8.370;2022-08-04T00:45:32;6.07;;;4.30;;
31990;SDS011;18508;49.386;8.370;2022-08-04T00:48:46;8.70;;;4.28;;
31990;SDS011;18508;49.386;8.370;2022-08-04T00:51:25;6.60;;;4.10;;
31990;SDS011;18508;49.386;8.370;2022-08-04T00:54:10;6.05;;;4.32;;
31990;SDS011;18508;49.386;8.370;2022-08-04T00:56:56;9.68;;;4.50;;
31990;SDS011;18508;49.386;8.370;2022-08-04T01:00:02;6.03;;;4.53;;
31990;SDS011;18508;49.386;8.370;2022-08-04T01:02:35;6.88;;;4.00;;
31990;SDS011;18508;49.386;8.370;2022-08-04T01:07:59;9.52;;;4.35;;
31990;SDS011;18508;49.386;8.370;2022-08-04T01:10:46;10.20;;;4.72;;
31990;SDS011;18508;49.386;8.370;2022-08-04T01:13:32;10.25;;;4.93;;
31990;SDS011;18508;49.386;8.370;2022-08-04T01:16:18;7.30;;;4.45;;
31990;SDS011;18508;49.386;8.370;2022-08-04T01:18:54;6.95;;;4.45;;
31990;SDS011;18508;49.386;8.370;2022-08-04T01:24:36;6.50;;;4.63;;
31990;SDS011;18508;49.386;8.370;2022-08-04T01:27:41;10.13;;;4.95;;
31990;SDS011;18508;49.386;8.370;2022-08-04T01:30:26;9.48;;;5.18;;
31990;SDS011;18508;49.386;8.370;2022-08-04T01:32:56;9.73;;;4.97;;
31990;SDS011;18508;49.386;8.370;2022-08-04T01:35:30;8.43;;;5.10;;
31990;SDS011;18508;49.386;8.370;2022-08-04T01:38:15;9.00;;;4.82;;
31990;SDS011;18508;49.386;8.370;2022-08-04T01:40:47;8.30;;;4.63;;
31990;SDS011;18508;49.386;8.370;2022-08-04T01:43:19;9.90;;;4.95;;
31990;SDS011;18508;49.386;8.370;2022-08-04T01:45:49;7.55;;;4.75;;
31990;SDS011;18508;49.386;8.370;2022-08-04T01:48:23;9.45;;;5.20;;
31990;SDS011;18508;49.386;8.370;2022-08-04T01:50:52;9.95;;;4.57;;
31990;SDS011;18508;49.386;8.370;2022-08-04T01:53:23;8.38;;;4.80;;
31990;SDS011;18508;49.386;8.370;2022-08-04T01:55:58;9.45;;;4.45;;
31990;SDS011;18508;49.386;8.370;2022-08-04T01:58:29;6.88;;;4.88;;
31990;SDS011;18508;49.386;8.370;2022-08-04T02:01:00;8.65;;;4.80;;
31990;SDS011;18508;49.386;8.370;2022-08-04T02:03:35;9.13;;;4.50;;
31990;SDS011;18508;49.386;8.370;2022-08-04T02:06:27;6.50;;;4.57;;
31990;SDS011;18508;49.386;8.370;2022-08-04T02:09:07;5.68;;;4.35;;
31990;SDS011;18508;49.386;8.370;2022-08-04T02:11:44;6.50;;;5.28;;
31990;SDS011;18508;49.386;8.370;2022-08-04T02:14:23;8.25;;;4.82;;
31990;SDS011;18508;49.386;8.370;2022-08-04T02:17:13;8.18;;;4.85;;
31990;SDS011;18508;49.386;8.370;2022-08-04T02:19:47;6.95;;;4.70;;
31990;SDS011;18508;49.386;8.370;2022-08-04T02:22:26;12.40;;;6.55;;
31990;SDS011;18508;49.386;8.370;2022-08-04T02:24:56;18.80;;;7.75;;
31990;SDS011;18508;49.386;8.370;2022-08-04T02:27:28;14.25;;;5.95;;
31990;SDS011;18508;49.386;8.370;2022-08-04T02:30:20;18.13;;;7.10;;
31990;SDS011;18508;49.386;8.370;2022-08-04T02:32:54;14.93;;;6.25;;
31990;SDS011;18508;49.386;8.370;2022-08-04T02:35:24;14.85;;;6.32;;
31990;SDS011;18508;49.386;8.370;2022-08-04T02:37:55;17.15;;;7.35;;
31990;SDS011;18508;49.386;8.370;2022-08-04T02:40:30;14.00;;;7.00;;
31990;SDS011;18508;49.386;8.370;2022-08-04T02:43:00;7.70;;;5.38;;
31990;SDS011;18508;49.386;8.370;2022-08-04T02:45:33;15.25;;;6.45;;
31990;SDS011;18508;49.386;8.370;2022-08-04T02:48:04;10.02;;;5.55;;
31990;SDS011;18508;49.386;8.370;2022-08-04T02:50:56;12.55;;;6.47;;
31990;SDS011;18508;49.386;8.370;2022-08-04T02:53:25;10.45;;;6.22;;
31990;SDS011;18508;49.386;8.370;2022-08-04T02:55:58;22.60;;;8.18;;
31990;SDS011;18508;49.386;8.370;2022-08-04T02:58:29;9.38;;;5.80;;
31990;SDS011;18508;49.386;8.370;2022-08-04T03:01:00;13.25;;;6.97;;
31990;SDS011;18508;49.386;8.370;2022-08-04T03:03:33;18.33;;;8.32;;
31990;SDS011;18508;49.386;8.370;2022-08-04T03:06:12;13.07;;;6.55;;
31990;SDS011;18508;49.386;8.370;2022-08-04T03:12:38;13.68;;;6.03;;
31990;SDS011;18508;49.386;8.370;2022-08-04T03:19:23;6.90;;;5.00;;
31990;SDS011;18508;49.386;8.370;2022-08-04T03:22:20;6.88;;;4.93;;
31990;SDS011;18508;49.386;8.370;2022-08-04T03:25:33;11.43;;;5.63;;
31990;SDS011;18508;49.386;8.370;2022-08-04T03:28:28;7.97;;;5.38;;
31990;SDS011;18508;49.386;8.370;2022-08-04T03:31:22;5.43;;;4.85;;
31990;SDS011;18508;49.386;8.370;2022-08-04T03:34:16;7.75;;;5.57;;
31990;SDS011;18508;49.386;8.370;2022-08-04T03:37:03;8.88;;;5.15;;
31990;SDS011;18508;49.386;8.370;2022-08-04T03:42:55;6.22;;;5.30;;
31990;SDS011;18508;49.386;8.370;2022-08-04T03:46:18;10.15;;;5.50;;
31990;SDS011;18508;49.386;8.370;2022-08-04T03:52:07;9.20;;;5.22;;
31990;SDS011;18508;49.386;8.370;2022-08-04T03:55:10;6.75;;;5.35;;
31990;SDS011;18508;49.386;8.370;2022-08-04T04:01:11;8.93;;;5.75;;
31990;SDS011;18508;49.386;8.370;2022-08-04T04:03:55;7.53;;;5.15;;
31990;SDS011;18508;49.386;8.370;2022-08-04T04:07:14;8.43;;;5.30;;
31990;SDS011;18508;49.386;8.370;2022-08-04T04:10:12;8.00;;;5.38;;
31990;SDS011;18508;49.386;8.370;2022-08-04T04:15:58;6.28;;;5.40;;
31990;SDS011;18508;49.386;8.370;2022-08-04T04:18:51;9.80;;;6.03;;
31990;SDS011;18508;49.386;8.370;2022-08-04T04:21:38;10.60;;;5.85;;
31990;SDS011;18508;49.386;8.370;2022-08-04T04:24:34;12.82;;;6.22;;
31990;SDS011;18508;49.386;8.370;2022-08-04T04:27:17;9.30;;;5.60;;
31990;SDS011;18508;49.386;8.370;2022-08-04T04:30:06;10.43;;;6.35;;
31990;SDS011;18508;49.386;8.370;2022-08-04T04:32:44;9.38;;;5.57;;
31990;SDS011;18508;49.386;8.370;2022-08-04T04:35:24;9.10;;;5.90;;
31990;SDS011;18508;49.386;8.370;2022-08-04T04:38:06;11.13;;;5.78;;
31990;SDS011;18508;49.386;8.370;2022-08-04T04:41:13;13.65;;;6.00;;
31990;SDS011;18508;49.386;8.370;2022-08-04T04:47:10;8.90;;;5.63;;
31990;SDS011;18508;49.386;8.370;2022-08-04T04:50:07;9.70;;;7.35;;
31990;SDS011;18508;49.386;8.370;2022-08-04T04:52:42;22.35;;;6.15;;
31990;SDS011;18508;49.386;8.370;2022-08-04T04:55:16;9.73;;;5.60;;
31990;SDS011;18508;49.386;8.370;2022-08-04T04:57:50;7.07;;;5.32;;
31990;SDS011;18508;49.386;8.370;2022-08-04T05:03:01;6.95;;;4.80;;
31990;SDS011;18508;49.386;8.370;2022-08-04T05:05:48;7.78;;;5.03;;
31990;SDS011;18508;49.386;8.370;2022-08-04T05:11:52;15.00;;;6.03;;
31990;SDS011;18508;49.386;8.370;2022-08-04T05:15:04;9.70;;;5.88;;
31990;SDS011;18508;49.386;8.370;2022-08-04T05:17:35;12.65;;;5.63;;
31990;SDS011;18508;49.386;8.370;2022-08-04T05:20:06;12.23;;;5.85;;
31990;SDS011;18508;49.386;8.370;2022-08-04T05:22:38;11.27;;;6.20;;
31990;SDS011;18508;49.386;8.370;2022-08-04T05:25:11;11.00;;;5.75;;
31990;SDS011;18508;49.386;8.370;2022-08-04T05:27:49;11.98;;;5.55;;
31990;SDS011;18508;49.386;8.370;2022-08-04T05:30:20;12.48;;;5.38;;
31990;SDS011;18508;49.386;8.370;2022-08-04T05:32:54;9.93;;;5.00;;
31990;SDS011;18508;49.386;8.370;2022-08-04T05:35:26;10.90;;;5.15;;
31990;SDS011;18508;49.386;8.370;2022-08-04T05:38:19;7.18;;;5.18;;
31990;SDS011;18508;49.386;8.370;2022-08-04T05:40:52;10.40;;;5.07;;
31990;SDS011;18508;49.386;8.370;2022-08-04T05:43:21;7.75;;;5.15;;
31990;SDS011;18508;49.386;8.370;2022-08-04T05:45:51;11.60;;;5.32;;
31990;SDS011;18508;49.386;8.370;2022-08-04T05:48:23;10.90;;;4.55;;
31990;SDS011;18508;49.386;8.370;2022-08-04T05:50:51;7.18;;;4.40;;
31990;SDS011;18508;49.386;8.370;2022-08-04T05:53:26;6.88;;;3.83;;
31990;SDS011;18508;49.386;8.370;2022-08-04T05:55:55;12.18;;;3.95;;
31990;SDS011;18508;49.386;8.370;2022-08-04T05:58:25;7.90;;;4.10;;
31990;SDS011;18508;49.386;8.370;2022-08-04T06:00:58;6.45;;;3.38;;
31990;SDS011;18508;49.386;8.370;2022-08-04T06:03:28;6.20;;;3.20;;
31990;SDS011;18508;49.386;8.370;2022-08-04T06:05:57;10.35;;;3.60;;
31990;SDS011;18508;49.386;8.370;2022-08-04T06:08:26;6.68;;;3.58;;
31990;SDS011;18508;49.386;8.370;2022-08-04T06:10:55;6.65;;;3.22;;
31990;SDS011;18508;49.386;8.370;2022-08-04T06:13:28;9.15;;;3.20;;
31990;SDS011;18508;49.386;8.370;2022-08-04T06:16:17;6.72;;;3.17;;
31990;SDS011;18508;49.386;8.370;2022-08-04T06:18:56;14.35;;;3.65;;
31990;SDS011;18508;49.386;8.370;2022-08-04T06:21:47;20.20;;;3.72;;
31990;SDS011;18508;49.386;8.370;2022-08-04T06:24:18;10.77;;;3.65;;
31990;SDS011;18508;49.386;8.370;2022-08-04T06:26:47;20.13;;;4.15;;
31990;SDS011;18508;49.386;8.370;2022-08-04T06:29:17;6.38;;;3.40;;
31990;SDS011;18508;49.386;8.370;2022-08-04T06:31:51;10.50;;;3.50;;
31990;SDS011;18508;49.386;8.370;2022-08-04T06:34:47;9.23;;;3.45;;
31990;SDS011;18508;49.386;8.370;2022-08-04T06:37:18;5.13;;;2.88;;
31990;SDS011;18508;49.386;8.370;2022-08-04T06:40:07;4.93;;;2.90;;
31990;SDS011;18508;49.386;8.370;2022-08-04T06:42:57;8.40;;;3.13;;
31990;SDS011;18508;49.386;8.370;2022-08-04T06:45:25;7.55;;;3.60;;
31990;SDS011;18508;49.386;8.370;2022-08-04T06:47:55;6.03;;;3.90;;
31990;SDS011;18508;49.386;8.370;2022-08-04T06:50:24;4.75;;;3.10;;
31990;SDS011;18508;49.386;8.370;2022-08-04T06:53:13;5.35;;;3.60;;
31990;SDS011;18508;49.386;8.370;2022-08-04T06:55:42;11.18;;;4.55;;
31990;SDS011;18508;49.386;8.370;2022-08-04T06:58:13;6.10;;;3.42;;
31990;SDS011;18508;49.386;8.370;2022-08-04T07:00:42;11.27;;;4.20;;
31990;SDS011;18508;49.386;8.370;2022-08-04T07:03:14;6.45;;;3.80;;
31990;SDS011;18508;49.386;8.370;2022-08-04T07:05:45;7.20;;;3.60;;
31990;SDS011;18508;49.386;8.370;2022-08-04T07:08:13;5.75;;;3.88;;
31990;SDS011;18508;49.386;8.370;2022-08-04T07:10:42;8.88;;;4.00;;
31990;SDS011;18508;49.386;8.370;2022-08-04T07:13:12;9.70;;;4.22;;
31990;SDS011;18508;49.386;8.370;2022-08-04T07:15:40;5.60;;;4.07;;
31990;SDS011;18508;49.386;8.370;2022-08-04T07:18:11;6.95;;;3.83;;
31990;SDS011;18508;49.386;8.370;2022-08-04T07:20:41;5.53;;;3.85;;
31990;SDS011;18508;49.386;8.370;2022-08-04T07:23:10;5.35;;;4.38;;
31990;SDS011;18508;49.386;8.370;2022-08-04T07:25:42;7.72;;;4.00;;
31990;SDS011;18508;49.386;8.370;2022-08-04T07:28:35;6.97;;;3.97;;
31990;SDS011;18508;49.386;8.370;2022-08-04T07:31:05;7.53;;;3.65;;
31990;SDS011;18508;49.386;8.370;2022-08-04T07:33:57;6.38;;;4.07;;
31990;SDS011;18508;49.386;8.370;2022-08-04T07:36:50;8.15;;;3.80;;
31990;SDS011;18508;49.386;8.370;2022-08-04T07:39:21;8.27;;;4.05;;
31990;SDS011;18508;49.386;8.370;2022-08-04T07:41:54;8.25;;;3.80;;
31990;SDS011;18508;49.386;8.370;2022-08-04T07:44:27;6.38;;;4.00;;
31990;SDS011;18508;49.386;8.370;2022-08-04T07:46:57;6.22;;;4.22;;
31990;SDS011;18508;49.386;8.370;2022-08-04T07:49:26;6.22;;;4.15;;
31990;SDS011;18508;49.386;8.370;2022-08-04T07:52:16;8.95;;;3.78;;
31990;SDS011;18508;49.386;8.370;2022-08-04T07:54:44;5.80;;;4.00;;
31990;SDS011;18508;49.386;8.370;2022-08-04T07:57:14;6.38;;;3.75;;
31990;SDS011;18508;49.386;8.370;2022-08-04T08:00:06;7.60;;;3.78;;
31990;SDS011;18508;49.386;8.370;2022-08-04T08:02:36;5.97;;;3.60;;
31990;SDS011;18508;49.386;8.370;2022-08-04T08:05:05;6.05;;;3.60;;
31990;SDS011;18508;49.386;8.370;2022-08-04T08:07:36;6.88;;;4.00;;
31990;SDS011;18508;49.386;8.370;2022-08-04T08:10:19;4.68;;;3.65;;
31990;SDS011;18508;49.386;8.370;2022-08-04T08:12:48;8.65;;;4.47;;
31990;SDS011;18508;49.386;8.370;2022-08-04T08:15:18;5.57;;;3.90;;
31990;SDS011;18508;49.386;8.370;2022-08-04T08:17:46;6.43;;;3.88;;
31990;SDS011;18508;49.386;8.370;2022-08-04T08:20:25;5.63;;;4.15;;
31990;SDS011;18508;49.386;8.370;2022-08-04T08:22:57;9.10;;;4.47;;
31990;SDS011;18508;49.386;8.370;2022-08-04T08:25:25;5.20;;;3.67;;
31990;SDS011;18508;49.386;8.370;2022-08-04T08:27:54;6.80;;;4.18;;
31990;SDS011;18508;49.386;8.370;2022-08-04T08:30:22;12.57;;;4.50;;
31990;SDS011;18508;49.386;8.370;2022-08-04T08:32:58;7.53;;;4.22;;
31990;SDS011;18508;49.386;8.370;2022-08-04T08:35:32;6.75;;;4.30;;
31990;SDS011;18508;49.386;8.370;2022-08-04T08:38:23;6.03;;;4.30;;
31990;SDS011;18508;49.386;8.370;2022-08-04T08:41:04;7.05;;;4.53;;
31990;SDS011;18508;49.386;8.370;2022-08-04T08:43:58;7.97;;;4.35;;
31990;SDS011;18508;49.386;8.370;2022-08-04T08:47:00;7.88;;;4.65;;
31990;SDS011;18508;49.386;8.370;2022-08-04T08:55:41;6.18;;;4.65;;
31990;SDS011;18508;49.386;8.370;2022-08-04T08:58:22;6.10;;;4.28;;
31990;SDS011;18508;49.386;8.370;2022-08-04T09:01:05;5.90;;;4.30;;
31990;SDS011;18508;49.386;8.370;2022-08-04T09:03:48;5.55;;;4.88;;
31990;SDS011;18508;49.386;8.370;2022-08-04T09:06:31;8.52;;;4.65;;
31990;SDS011;18508;49.386;8.370;2022-08-04T09:09:21;5.30;;;3.95;;
31990;SDS011;18508;49.386;8.370;2022-08-04T09:12:07;7.38;;;4.35;;
31990;SDS011;18508;49.386;8.370;2022-08-04T09:14:52;8.05;;;4.45;;
31990;SDS011;18508;49.386;8.370;2022-08-04T09:17:26;6.22;;;4.55;;
31990;SDS011;18508;49.386;8.370;2022-08-04T09:19:56;5.03;;;4.25;;
31990;SDS011;18508;49.386;8.370;2022-08-04T09:22:32;7.13;;;4.63;;
31990;SDS011;18508;49.386;8.370;2022-08-04T09:25:06;8.15;;;4.18;;
31990;SDS011;18508;49.386;8.370;2022-08-04T09:27:45;11.40;;;4.63;;
31990;SDS011;18508;49.386;8.370;2022-08-04T09:30:17;6.55;;;4.50;;
31990;SDS011;18508;49.386;8.370;2022-08-04T09:32:49;5.80;;;4.28;;
31990;SDS011;18508;49.386;8.370;2022-08-04T09:35:28;7.00;;;4.68;;
31990;SDS011;18508;49.386;8.370;2022-08-04T09:38:09;5.75;;;4.20;;
31990;SDS011;18508;49.386;8.370;2022-08-04T09:40:47;5.10;;;4.22;;
31990;SDS011;18508;49.386;8.370;2022-08-04T09:43:31;6.47;;;4.07;;
31990;SDS011;18508;49.386;8.370;2022-08-04T09:46:24;8.88;;;4.25;;
31990;SDS011;18508;49.386;8.370;2022-08-04T09:48:57;7.93;;;4.38;;
31990;SDS011;18508;49.386;8.370;2022-08-04T09:54:26;5.75;;;3.92;;
31990;SDS011;18508;49.386;8.370;2022-08-04T09:57:03;8.90;;;3.70;;
31990;SDS011;18508;49.386;8.370;2022-08-04T09:59:40;6.95;;;4.63;;
31990;SDS011;18508;49.386;8.370;2022-08-04T10:02:15;10.68;;;4.50;;
31990;SDS011;18508;49.386;8.370;2022-08-04T10:04:48;6.45;;;4.30;;
31990;SDS011;18508;49.386;8.370;2022-08-04T10:07:26;5.78;;;3.83;;
31990;SDS011;18508;49.386;8.370;2022-08-04T10:10:11;5.65;;;4.10;;
31990;SDS011;18508;49.386;8.370;2022-08-04T10:12:54;7.03;;;3.80;;
31990;SDS011;18508;49.386;8.370;2022-08-04T10:15:42;5.05;;;3.80;;
31990;SDS011;18508;49.386;8.370;2022-08-04T10:18:22;7.57;;;3.90;;
31990;SDS011;18508;49.386;8.370;2022-08-04T10:21:07;6.32;;;3.67;;
31990;SDS011;18508;49.386;8.370;2022-08-04T10:23:46;8.20;;;3.60;;
31990;SDS011;18508;49.386;8.370;2022-08-04T10:26:37;5.28;;;3.53;;
31990;SDS011;18508;49.386;8.370;2022-08-04T10:29:12;6.07;;;3.53;;
31990;SDS011;18508;49.386;8.370;2022-08-04T10:31:47;4.60;;;3.45;;
31990;SDS011;18508;49.386;8.370;2022-08-04T10:34:23;4.05;;;3.42;;
31990;SDS011;18508;49.386;8.370;2022-08-04T10:36:56;5.72;;;3.42;;
31990;SDS011;18508;49.386;8.370;2022-08-04T10:39:31;5.60;;;3.67;;
31990;SDS011;18508;49.386;8.370;2022-08-04T10:42:12;5.10;;;3.38;;
31990;SDS011;18508;49.386;8.370;2022-08-04T10:44:51;4.57;;;3.33;;
31990;SDS011;18508;49.386;8.370;2022-08-04T10:47:33;6.93;;;3.43;;
31990;SDS011;18508;49.386;8.370;2022-08-04T10:50:18;4.82;;;3.35;;
31990;SDS011;18508;49.386;8.370;2022-08-04T10:52:51;5.78;;;3.50;;
31990;SDS011;18508;49.386;8.370;2022-08-04T10:55:26;7.22;;;3.47;;
31990;SDS011;18508;49.386;8.370;2022-08-04T10:58:19;4.85;;;3.30;;
31990;SDS011;18508;49.386;8.370;2022-08-04T11:01:14;8.70;;;3.72;;
31990;SDS011;18508;49.386;8.370;2022-08-04T11:04:11;7.45;;;3.38;;
31990;SDS011;18508;49.386;8.370;2022-08-04T11:06:53;5.57;;;3.00;;
31990;SDS011;18508;49.386;8.370;2022-08-04T11:09:22;4.28;;;3.10;;
31990;SDS011;18508;49.386;8.370;2022-08-04T11:11:52;7.00;;;3.28;;
31990;SDS011;18508;49.386;8.370;2022-08-04T11:14:28;5.35;;;3.00;;
31990;SDS011;18508;49.386;8.370;2022-08-04T11:17:04;5.05;;;3.40;;
31990;SDS011;18508;49.386;8.370;2022-08-04T11:19:37;13.02;;;3.47;;
31990;SDS011;18508;49.386;8.370;2022-08-04T11:22:22;5.28;;;3.33;;
31990;SDS011;18508;49.386;8.370;2022-08-04T11:24:52;4.15;;;3.38;;
31990;SDS011;18508;49.386;8.370;2022-08-04T11:27:33;5.35;;;3.10;;
31990;SDS011;18508;49.386;8.370;2022-08-04T11:30:06;5.07;;;3.00;;
31990;SDS011;18508;49.386;8.370;2022-08-04T11:32:41;4.05;;;2.60;;
31990;SDS011;18508;49.386;8.370;2022-08-04T11:35:15;5.03;;;2.83;;
31990;SDS011;18508;49.386;8.370;2022-08-04T11:37:57;7.00;;;3.50;;
31990;SDS011;18508;49.386;8.370;2022-08-04T11:40:35;6.35;;;2.78;;
31990;SDS011;18508;49.386;8.370;2022-08-04T11:43:31;4.72;;;2.97;;
31990;SDS011;18508;49.386;8.370;2022-08-04T11:46:23;4.07;;;3.10;;
31990;SDS011;18508;49.386;8.370;2022-08-04T11:48:57;3.20;;;2.80;;
31990;SDS011;18508;49.386;8.370;2022-08-04T11:51:49;5.07;;;3.17;;
31990;SDS011;18508;49.386;8.370;2022-08-04T11:54:19;4.27;;;2.77;;
31990;SDS011;18508;49.386;8.370;2022-08-04T11:56:48;5.65;;;2.55;;
31990;SDS011;18508;49.386;8.370;2022-08-04T11:59:19;3.35;;;2.15;;
31990;SDS011;18508;49.386;8.370;2022-08-04T12:02:00;4.30;;;2.28;;
31990;SDS011;18508;49.386;8.370;2022-08-04T12:04:36;2.85;;;2.13;;
31990;SDS011;18508;49.386;8.370;2022-08-04T12:07:19;3.90;;;2.50;;
31990;SDS011;18508;49.386;8.370;2022-08-04T12:10:02;4.15;;;2.58;;
31990;SDS011;18508;49.386;8.370;2022-08-04T12:12:40;3.42;;;2.65;;
31990;SDS011;18508;49.386;8.370;2022-08-04T12:15:15;4.88;;;2.38;;
31990;SDS011;18508;49.386;8.370;2022-08-04T12:17:51;3.55;;;2.25;;
31990;SDS011;18508;49.386;8.370;2022-08-04T12:20:33;9.40;;;2.60;;
31990;SDS011;18508;49.386;8.370;2022-08-04T12:23:14;4.80;;;2.70;;
31990;SDS011;18508;49.386;8.370;2022-08-04T12:25:49;4.65;;;2.17;;
31990;SDS011;18508;49.386;8.370;2022-08-04T12:28:24;3.13;;;2.22;;
31990;SDS011;18508;49.386;8.370;2022-08-04T12:31:17;5.15;;;3.08;;
31990;SDS011;18508;49.386;8.370;2022-08-04T12:33:50;4.07;;;1.88;;
31990;SDS011;18508;49.386;8.370;2022-08-04T12:36:32;3.42;;;1.75;;
31990;SDS011;18508;49.386;8.370;2022-08-04T12:39:08;3.80;;;1.88;;
31990;SDS011;18508;49.386;8.370;2022-08-04T12:41:38;3.40;;;1.83;;
31990;SDS011;18508;49.386;8.370;2022-08-04T12:44:09;2.63;;;1.80;;
31990;SDS011;18508;49.386;8.370;2022-08-04T12:47:00;7.28;;;1.80;;
31990;SDS011;18508;49.386;8.370;2022-08-04T12:49:49;4.10;;;1.60;;
31990;SDS011;18508;49.386;8.370;2022-08-04T12:52:26;4.10;;;1.90;;
31990;SDS011;18508;49.386;8.370;2022-08-04T12:55:17;3.40;;;2.08;;
31990;SDS011;18508;49.386;8.370;2022-08-04T12:57:48;4.95;;;2.15;;
31990;SDS011;18508;49.386;8.370;2022-08-04T13:00:27;8.48;;;2.38;;
31990;SDS011;18508;49.386;8.370;2022-08-04T13:03:07;2.95;;;2.03;;
31990;SDS011;18508;49.386;8.370;2022-08-04T13:05:38;2.40;;;2.00;;
31990;SDS011;18508;49.386;8.370;2022-08-04T13:08:09;5.43;;;1.85;;
31990;SDS011;18508;49.386;8.370;2022-08-04T13:10:40;5.93;;;2.17;;
31990;SDS011;18508;49.386;8.370;2022-08-04T13:13:12;4.15;;;1.85;;
31990;SDS011;18508;49.386;8.370;2022-08-04T13:15:53;3.47;;;1.98;;
31990;SDS011;18508;49.386;8.370;2022-08-04T13:18:23;6.30;;;2.60;;
31990;SDS011;18508;49.386;8.370;2022-08-04T13:20:55;4.13;;;1.83;;
31990;SDS011;18508;49.386;8.370;2022-08-04T13:23:47;7.57;;;2.00;;
31990;SDS011;18508;49.386;8.370;2022-08-04T13:26:37;4.13;;;2.08;;
31990;SDS011;18508;49.386;8.370;2022-08-04T13:29:21;5.03;;;2.25;;
31990;SDS011;18508;49.386;8.370;2022-08-04T13:32:14;5.10;;;1.98;;
31990;SDS011;18508;49.386;8.370;2022-08-04T13:34:43;2.30;;;2.00;;
31990;SDS011;18508;49.386;8.370;2022-08-04T13:37:17;3.80;;;1.98;;
31990;SDS011;18508;49.386;8.370;2022-08-04T13:39:52;4.78;;;2.35;;
31990;SDS011;18508;49.386;8.370;2022-08-04T13:42:24;4.05;;;1.80;;
31990;SDS011;18508;49.386;8.370;2022-08-04T13:44:54;3.05;;;2.10;;
31990;SDS011;18508;49.386;8.370;2022-08-04T13:47:24;2.78;;;1.90;;
31990;SDS011;18508;49.386;8.370;2022-08-04T13:50:04;6.78;;;2.38;;
31990;SDS011;18508;49.386;8.370;2022-08-04T13:55:05;3.35;;;1.75;;
31990;SDS011;18508;49.386;8.370;2022-08-04T13:57:42;3.00;;;1.73;;
31990;SDS011;18508;49.386;8.370;2022-08-04T14:00:11;6.47;;;1.90;;
31990;SDS011;18508;49.386;8.370;2022-08-04T14:02:58;3.45;;;1.88;;
31990;SDS011;18508;49.386;8.370;2022-08-04T14:05:29;3.55;;;2.08;;
31990;SDS011;18508;49.386;8.370;2022-08-04T14:08:19;3.22;;;1.90;;
31990;SDS011;18508;49.386;8.370;2022-08-04T14:10:54;4.53;;;1.70;;
31990;SDS011;18508;49.386;8.370;2022-08-04T14:13:31;4.82;;;1.85;;
31990;SDS011;18508;49.386;8.370;2022-08-04T14:16:13;6.43;;;2.33;;
31990;SDS011;18508;49.386;8.370;2022-08-04T14:18:43;4.63;;;1.80;;
31990;SDS011;18508;49.386;8.370;2022-08-04T14:21:12;2.70;;;1.98;;
31990;SDS011;18508;49.386;8.370;2022-08-04T14:23:43;2.38;;;1.77;;
31990;SDS011;18508;49.386;8.370;2022-08-04T14:26:14;2.47;;;1.80;;
31990;SDS011;18508;49.386;8.370;2022-08-04T14:28:45;4.23;;;2.00;;
31990;SDS011;18508;49.386;8.370;2022-08-04T14:31:33;3.33;;;1.90;;
31990;SDS011;18508;49.386;8.370;2022-08-04T14:34:24;4.60;;;1.83;;
31990;SDS011;18508;49.386;8.370;2022-08-04T14:36:54;3.45;;;2.00;;
31990;SDS011;18508;49.386;8.370;2022-08-04T14:39:43;4.43;;;1.92;;
31990;SDS011;18508;49.386;8.370;2022-08-04T14:42:39;3.47;;;2.08;;
31990;SDS011;18508;49.386;8.370;2022-08-04T14:45:09;2.30;;;2.00;;
31990;SDS011;18508;49.386;8.370;2022-08-04T14:47:39;2.97;;;1.80;;
31990;SDS011;18508;49.386;8.370;2022-08-04T14:50:18;5.00;;;2.08;;
31990;SDS011;18508;49.386;8.370;2022-08-04T14:52:47;2.97;;;1.65;;
31990;SDS011;18508;49.386;8.370;2022-08-04T14:55:17;3.28;;;1.90;;
31990;SDS011;18508;49.386;8.370;2022-08-04T14:57:46;3.42;;;1.80;;
31990;SDS011;18508;49.386;8.370;2022-08-04T15:00:35;2.45;;;1.95;;
31990;SDS011;18508;49.386;8.370;2022-08-04T15:03:05;3.28;;;1.67;;
31990;SDS011;18508;49.386;8.370;2022-08-04T15:05:35;2.60;;;1.67;;
31990;SDS011;18508;49.386;8.370;2022-08-04T15:08:24;2.67;;;2.03;;
31990;SDS011;18508;49.386;8.370;2022-08-04T15:10:56;2.22;;;1.60;;
31990;SDS011;18508;49.386;8.370;2022-08-04T15:15:58;2.72;;;1.77;;
31990;SDS011;18508;49.386;8.370;2022-08-04T15:18:34;4.07;;;1.90;;
31990;SDS011;18508;49.386;8.370;2022-08-04T15:21:04;2.55;;;1.65;;
31990;SDS011;18508;49.386;8.370;2022-08-04T15:23:33;3.22;;;2.10;;
31990;SDS011;18508;49.386;8.370;2022-08-04T15:26:05;1.88;;;1.60;;
31990;SDS011;18508;49.386;8.370;2022-08-04T15:28:37;3.10;;;1.90;;
31990;SDS011;18508;49.386;8.370;2022-08-04T15:31:08;2.53;;;1.98;;
31990;SDS011;18508;49.386;8.370;2022-08-04T15:33:58;3.40;;;1.80;;
31990;SDS011;18508;49.386;8.370;2022-08-04T15:36:29;2.28;;;1.80;;
31990;SDS011;18508;49.386;8.370;2022-08-04T15:39:04;4.80;;;2.10;;
31990;SDS011;18508;49.386;8.370;2022-08-04T15:41:51;4.38;;;3.97;;
31990;SDS011;18508;49.386;8.370;2022-08-04T15:44:33;3.58;;;1.90;;
31990;SDS011;18508;49.386;8.370;2022-08-04T15:47:16;2.03;;;1.73;;
31990;SDS011;18508;49.386;8.370;2022-08-04T15:49:45;5.88;;;1.85;;
31990;SDS011;18508;49.386;8.370;2022-08-04T15:55:39;4.35;;;2.00;;
31990;SDS011;18508;49.386;8.370;2022-08-04T15:58:09;4.22;;;2.05;;
31990;SDS011;18508;49.386;8.370;2022-08-04T16:03:44;6.00;;;4.30;;
31990;SDS011;18508;49.386;8.370;2022-08-04T16:09:22;2.42;;;1.75;;
31990;SDS011;18508;49.386;8.370;2022-08-04T16:12:24;3.30;;;1.95;;
31990;SDS011;18508;49.386;8.370;2022-08-04T16:18:11;4.22;;;1.70;;
31990;SDS011;18508;49.386;8.370;2022-08-04T16:20:55;2.20;;;1.98;;
31990;SDS011;18508;49.386;8.370;2022-08-04T16:23:34;3.90;;;2.05;;
31990;SDS011;18508;49.386;8.370;2022-08-04T16:26:40;4.30;;;2.38;;
31990;SDS011;18508;49.386;8.370;2022-08-04T16:29:28;2.13;;;1.73;;
31990;SDS011;18508;49.386;8.370;2022-08-04T16:32:11;5.70;;;2.00;;
31990;SDS011;18508;49.386;8.370;2022-08-04T16:34:42;2.63;;;1.70;;
31990;SDS011;18508;49.386;8.370;2022-08-04T16:37:29;4.82;;;1.73;;
31990;SDS011;18508;49.386;8.370;2022-08-04T16:43:04;2.25;;;1.65;;
31990;SDS011;18508;49.386;8.370;2022-08-04T16:45:40;4.13;;;1.48;;
31990;SDS011;18508;49.386;8.370;2022-08-04T16:48:16;3.33;;;1.65;;
31990;SDS011;18508;49.386;8.370;2022-08-04T16:50:47;5.25;;;1.85;;
31990;SDS011;18508;49.386;8.370;2022-08-04T16:53:36;3.42;;;1.88;;
31990;SDS011;18508;49.386;8.370;2022-08-04T16:56:20;3.22;;;2.00;;
31990;SDS011;18508;49.386;8.370;2022-08-04T16:58:55;2.55;;;1.60;;